createdAt,value
2018-06-25T00:00:09.243Z,12.80
2018-06-25T00:02:38.304Z,12.80
2018-06-25T00:05:07.334Z,12.80
2018-06-25T00:07:36.396Z,12.80
2018-06-25T00:10:05.423Z,12.80
2018-06-25T00:12:34.523Z,12.80
2018-06-25T00:15:03.600Z,12.80
2018-06-25T00:17:32.672Z,12.70
2018-06-25T00:20:01.724Z,12.70
2018-06-25T00:22:30.796Z,12.70
2018-06-25T00:24:59.898Z,12.70
2018-06-25T00:27:28.971Z,12.70
2018-06-25T00:29:58.028Z,12.70
2018-06-25T00:34:55.779Z,12.70
2018-06-25T00:37:24.856Z,12.70
2018-06-25T00:39:53.903Z,12.70
2018-06-25T00:44:51.644Z,12.80
2018-06-25T00:47:20.716Z,12.70
2018-06-25T00:49:50.008Z,12.80
2018-06-25T00:52:19.088Z,12.80
2018-06-25T00:54:48.139Z,12.80
2018-06-25T00:57:17.219Z,12.80
2018-06-25T00:59:52.437Z,12.70
2018-06-25T01:02:21.860Z,12.80
2018-06-25T01:04:50.919Z,12.80
2018-06-25T01:07:20.299Z,12.80
2018-06-25T01:09:49.644Z,12.80
2018-06-25T01:12:18.763Z,12.80
2018-06-25T01:14:47.816Z,12.80
2018-06-25T01:17:16.876Z,12.80
2018-06-25T01:19:45.951Z,12.80
2018-06-25T01:22:15.096Z,12.80
2018-06-25T01:27:12.860Z,12.80
2018-06-25T01:29:42.441Z,12.80
2018-06-25T01:32:11.578Z,12.80
2018-06-25T01:34:40.658Z,12.80
2018-06-25T01:39:38.472Z,12.90
2018-06-25T01:44:36.252Z,12.80
2018-06-25T01:47:05.324Z,12.90
2018-06-25T01:49:34.388Z,12.80
2018-06-25T01:52:03.436Z,12.90
2018-06-25T01:57:01.172Z,12.90
2018-06-25T01:59:30.235Z,12.80
2018-06-25T02:01:59.274Z,12.80
2018-06-25T02:04:28.379Z,12.80
2018-06-25T02:06:57.437Z,12.80
2018-06-25T02:09:26.508Z,12.70
2018-06-25T02:11:55.584Z,12.70
2018-06-25T02:16:53.383Z,12.70
2018-06-25T02:19:22.447Z,12.60
2018-06-25T02:21:51.507Z,12.60
2018-06-25T02:24:20.576Z,12.60
2018-06-25T02:26:49.636Z,12.60
2018-06-25T02:29:18.708Z,12.50
2018-06-25T02:31:47.767Z,12.50
2018-06-25T02:34:16.836Z,12.50
2018-06-25T02:39:14.624Z,12.50
2018-06-25T02:44:12.371Z,12.50
2018-06-25T02:46:41.434Z,12.50
2018-06-25T02:49:10.508Z,12.50
2018-06-25T02:54:08.256Z,12.50
2018-06-25T02:56:37.311Z,12.40
2018-06-25T02:59:06.406Z,12.40
2018-06-25T03:01:35.565Z,12.40
2018-06-25T03:04:04.632Z,12.40
2018-06-25T03:06:33.752Z,12.40
2018-06-25T03:09:02.860Z,12.40
2018-06-25T03:14:00.632Z,12.40
2018-06-25T03:16:29.680Z,12.40
2018-06-25T03:18:58.740Z,12.40
2018-06-25T03:26:25.240Z,12.30
2018-06-25T03:28:54.308Z,12.30
2018-06-25T03:31:23.355Z,12.40
2018-06-25T03:33:52.556Z,12.30
2018-06-25T03:36:21.681Z,12.40
2018-06-25T03:38:50.752Z,12.30
2018-06-25T03:41:19.808Z,12.40
2018-06-25T03:43:48.872Z,12.40
2018-06-25T03:46:17.916Z,12.40
2018-06-25T03:48:47.045Z,12.40
2018-06-25T03:51:16.088Z,12.40
2018-06-25T03:53:45.163Z,12.40
2018-06-25T03:58:42.924Z,12.50
2018-06-25T04:01:11.977Z,12.40
2018-06-25T04:03:41.113Z,12.30
2018-06-25T04:06:10.160Z,12.20
2018-06-25T04:08:39.224Z,12.20
2018-06-25T04:11:08.309Z,12.20
2018-06-25T04:13:37.363Z,12.20
2018-06-25T04:16:06.468Z,12.20
2018-06-25T04:18:35.523Z,12.30
2018-06-25T04:23:33.419Z,12.40
2018-06-25T04:26:02.488Z,12.50
2018-06-25T04:28:31.548Z,12.50
2018-06-25T04:31:00.633Z,12.50
2018-06-25T04:33:29.700Z,12.60
2018-06-25T04:35:58.768Z,12.70
2018-06-25T04:38:27.889Z,12.70
2018-06-25T04:40:56.924Z,12.70
2018-06-25T04:43:25.982Z,12.80
2018-06-25T04:48:23.756Z,12.90
2018-06-25T04:55:50.649Z,13.10
2018-06-25T04:58:19.700Z,13.10
2018-06-25T05:00:48.802Z,13.20
2018-06-25T05:03:18.267Z,13.20
2018-06-25T05:05:47.332Z,13.30
2018-06-25T05:10:45.183Z,13.30
2018-06-25T05:13:14.244Z,13.20
2018-06-25T05:15:43.340Z,13.20
2018-06-25T05:18:12.379Z,13.20
2018-06-25T05:20:41.440Z,13.20
2018-06-25T05:23:10.480Z,13.20
2018-06-25T05:25:39.549Z,13.20
2018-06-25T05:28:08.593Z,13.20
2018-06-25T05:30:37.677Z,13.30
2018-06-25T05:38:04.124Z,13.50
2018-06-25T05:40:33.192Z,13.60
2018-06-25T05:43:02.244Z,13.60
2018-06-25T05:50:29.507Z,13.70
2018-06-25T05:52:58.562Z,13.80
2018-06-25T05:55:27.976Z,13.90
2018-06-25T05:57:57.168Z,14.00
2018-06-25T06:00:26.227Z,14.10
2018-06-25T06:05:23.984Z,14.10
2018-06-25T06:07:53.029Z,14.20
2018-06-25T06:10:22.107Z,14.40
2018-06-25T06:12:51.174Z,14.50
2018-06-25T06:15:20.248Z,14.60
2018-06-25T06:17:49.296Z,14.90
2018-06-25T06:22:47.043Z,15.10
2018-06-25T06:25:16.120Z,15.20
2018-06-25T06:27:45.172Z,15.30
2018-06-25T06:30:14.240Z,15.20
2018-06-25T06:32:43.328Z,15.30
2018-06-25T06:35:12.400Z,15.30
2018-06-25T06:37:41.452Z,15.30
2018-06-25T06:42:39.224Z,15.20
2018-06-25T06:47:37.096Z,15.10
2018-06-25T06:50:06.280Z,15.10
2018-06-25T06:52:35.337Z,15.00
2018-06-25T06:55:04.504Z,14.90
2018-06-25T07:00:02.617Z,15.70
2018-06-25T07:02:31.651Z,16.20
2018-06-25T07:05:00.704Z,16.80
2018-06-25T07:09:58.456Z,17.00
2018-06-25T07:12:27.543Z,17.10
2018-06-25T07:14:56.592Z,17.20
2018-06-25T07:17:25.648Z,16.90
2018-06-25T07:19:54.693Z,16.60
2018-06-25T07:22:23.756Z,16.50
2018-06-25T07:27:21.529Z,16.20
2018-06-25T07:29:50.573Z,16.30
2018-06-25T07:32:19.721Z,16.60
2018-06-25T07:37:17.447Z,17.10
2018-06-25T07:39:46.495Z,17.40
2018-06-25T07:47:13.514Z,18.10
2018-06-25T07:49:42.544Z,18.10
2018-06-25T07:52:11.608Z,17.90
2018-06-25T07:54:40.648Z,17.60
2018-06-25T07:57:09.707Z,17.50
2018-06-25T07:59:38.751Z,17.50
2018-06-25T08:02:08.304Z,17.70
2018-06-25T08:04:37.359Z,17.70
2018-06-25T08:07:06.632Z,17.70
2018-06-25T08:09:35.672Z,17.90
2018-06-25T08:14:33.432Z,18.50
2018-06-25T08:17:02.492Z,18.50
2018-06-25T08:19:31.539Z,18.30
2018-06-25T08:24:29.275Z,18.40
2018-06-25T08:26:58.356Z,18.70
2018-06-25T08:29:27.495Z,19.50
2018-06-25T08:31:56.560Z,19.50
2018-06-25T08:34:25.785Z,19.10
2018-06-25T08:36:54.701Z,18.90
2018-06-25T08:41:52.429Z,18.60
2018-06-25T08:44:21.464Z,18.40
2018-06-25T08:46:50.528Z,18.40
2018-06-25T08:49:19.567Z,18.50
2018-06-25T08:51:48.661Z,18.80
2018-06-25T08:56:46.489Z,18.80
2018-06-25T08:59:15.505Z,18.70
2018-06-25T09:01:44.576Z,18.70
2018-06-25T09:04:13.620Z,18.70
2018-06-25T09:06:42.680Z,19.00
2018-06-25T09:09:13.088Z,19.00
2018-06-25T09:11:42.445Z,19.10
2018-06-25T09:14:11.493Z,19.10
2018-06-25T09:16:40.618Z,19.40
2018-06-25T09:19:09.735Z,19.60
2018-06-25T09:21:38.867Z,19.80
2018-06-25T09:24:07.919Z,20.20
2018-06-25T09:26:39.644Z,20.80
2018-06-25T09:29:09.339Z,21.30
2018-06-25T09:31:38.400Z,21.10
2018-06-25T09:34:11.673Z,20.40
2018-06-25T09:36:41.260Z,20.00
2018-06-25T09:39:12.080Z,19.80
2018-06-25T09:41:41.253Z,19.60
2018-06-25T09:44:10.985Z,19.40
2018-06-25T09:46:40.307Z,19.40
2018-06-25T09:49:09.352Z,19.40
2018-06-25T09:51:38.444Z,19.30
2018-06-25T09:54:07.519Z,19.40
2018-06-25T09:56:36.582Z,19.50
2018-06-25T09:59:05.752Z,19.60
2018-06-25T10:01:34.815Z,19.60
2018-06-25T10:04:03.865Z,19.50
2018-06-25T10:06:32.931Z,19.80
2018-06-25T10:11:30.752Z,19.90
2018-06-25T10:13:59.875Z,20.20
2018-06-25T10:16:28.976Z,20.20
2018-06-25T10:18:58.092Z,20.30
2018-06-25T10:21:27.209Z,20.30
2018-06-25T10:23:56.292Z,20.70
2018-06-25T10:26:25.324Z,21.20
2018-06-25T10:28:54.380Z,21.30
2018-06-25T10:31:23.415Z,21.60
2018-06-25T10:33:52.467Z,21.70
2018-06-25T10:36:21.500Z,22.10
2018-06-25T10:38:50.560Z,22.50
2018-06-25T10:41:19.588Z,22.40
2018-06-25T10:43:48.644Z,22.70
2018-06-25T10:46:17.680Z,22.90
2018-06-25T10:48:46.728Z,22.90
2018-06-25T10:51:15.768Z,22.60
2018-06-25T10:53:44.823Z,22.50
2018-06-25T10:56:13.860Z,22.80
2018-06-25T10:58:42.921Z,23.00
2018-06-25T11:01:12.036Z,23.20
2018-06-25T11:03:41.183Z,23.10
2018-06-25T11:06:10.676Z,22.70
2018-06-25T11:08:40.704Z,22.90
2018-06-25T11:11:09.984Z,22.90
2018-06-25T11:13:39.048Z,22.90
2018-06-25T11:16:08.086Z,22.60
2018-06-25T11:18:37.143Z,22.60
2018-06-25T11:25:53.813Z,22.80
2018-06-25T11:28:23.633Z,23.40
2018-06-25T11:30:52.672Z,23.70
2018-06-25T11:33:22.144Z,23.80
2018-06-25T11:35:51.187Z,24.20
2018-06-25T11:38:20.248Z,23.70
2018-06-25T11:40:49.274Z,23.70
2018-06-25T11:43:18.319Z,23.50
2018-06-25T11:45:47.356Z,23.60
2018-06-25T11:48:16.412Z,23.80
2018-06-25T11:50:45.444Z,23.70
2018-06-25T11:53:14.492Z,23.80
2018-06-25T11:55:43.523Z,23.50
2018-06-25T11:58:12.581Z,23.40
2018-06-25T12:00:41.616Z,23.70
2018-06-25T12:03:10.727Z,24.10
2018-06-25T12:05:39.739Z,24.10
2018-06-25T12:10:37.518Z,24.50
2018-06-25T12:13:06.576Z,24.20
2018-06-25T12:15:35.628Z,23.90
2018-06-25T12:18:04.716Z,24.00
2018-06-25T12:20:33.763Z,24.00
2018-06-25T12:23:02.852Z,23.80
2018-06-25T12:25:31.900Z,24.30
2018-06-25T12:28:00.966Z,24.80
2018-06-25T12:30:30.012Z,25.10
2018-06-25T12:32:59.080Z,24.70
2018-06-25T12:37:56.896Z,25.30
2018-06-25T12:40:25.920Z,25.70
2018-06-25T12:42:54.990Z,26.40
2018-06-25T12:45:24.036Z,26.50
2018-06-25T12:47:53.100Z,26.30
2018-06-25T12:50:22.148Z,25.90
2018-06-25T12:52:51.227Z,25.80
2018-06-25T12:55:20.276Z,26.40
2018-06-25T12:57:49.343Z,27.10
2018-06-25T13:00:18.416Z,27.10
2018-06-25T13:02:47.463Z,27.30
2018-06-25T13:05:16.668Z,27.20
2018-06-25T13:07:45.715Z,27.30
2018-06-25T13:17:40.849Z,27.60
2018-06-25T13:20:09.900Z,27.60
2018-06-25T13:22:38.939Z,27.30
2018-06-25T13:25:08.019Z,27.00
2018-06-25T13:27:37.135Z,27.10
2018-06-25T13:30:06.212Z,27.20
2018-06-25T13:32:35.311Z,27.30
2018-06-25T13:35:04.489Z,27.90
2018-06-25T13:37:33.524Z,28.40
2018-06-25T13:40:02.620Z,28.60
2018-06-25T13:42:31.660Z,28.60
2018-06-25T13:45:00.711Z,28.60
2018-06-25T13:47:29.747Z,29.10
2018-06-25T13:49:58.836Z,29.40
2018-06-25T13:52:27.879Z,29.20
2018-06-25T13:54:56.939Z,28.60
2018-06-25T13:57:25.988Z,28.00
2018-06-25T13:59:55.056Z,27.40
2018-06-25T14:02:24.136Z,27.90
2018-06-25T14:04:53.203Z,28.40
2018-06-25T14:07:22.254Z,28.50
2018-06-25T14:09:51.369Z,28.00
2018-06-25T14:12:20.404Z,27.20
2018-06-25T14:14:49.456Z,27.00
2018-06-25T14:17:18.491Z,26.80
2018-06-25T14:19:47.543Z,26.50
2018-06-25T14:22:16.641Z,27.30
2018-06-25T14:24:50.628Z,28.30
2018-06-25T14:27:19.760Z,28.80
2018-06-25T14:29:48.816Z,28.70
2018-06-25T14:32:23.363Z,28.80
2018-06-25T14:34:57.871Z,29.00
2018-06-25T14:37:26.909Z,29.40
2018-06-25T14:42:24.624Z,30.60
2018-06-25T14:44:53.681Z,30.50
2018-06-25T14:47:22.715Z,29.90
2018-06-25T14:49:51.771Z,29.60
2018-06-25T14:52:20.817Z,29.20
2018-06-25T14:54:49.893Z,28.90
2018-06-25T14:57:19.020Z,28.40
2018-06-25T14:59:48.084Z,27.50
2018-06-25T15:02:17.124Z,27.00
2018-06-25T15:04:46.180Z,26.50
2018-06-25T15:07:15.215Z,26.10
2018-06-25T15:09:44.277Z,25.80
2018-06-25T15:12:13.408Z,25.50
2018-06-25T15:14:42.492Z,25.70
2018-06-25T15:17:11.520Z,26.50
2018-06-25T15:19:40.581Z,27.80
2018-06-25T15:22:09.611Z,28.70
2018-06-25T15:24:38.664Z,28.90
2018-06-25T15:27:07.691Z,28.60
2018-06-25T15:29:36.743Z,27.70
2018-06-25T15:32:05.792Z,26.70
2018-06-25T15:34:34.876Z,26.00
2018-06-25T15:37:03.922Z,25.80
2018-06-25T15:39:32.976Z,25.80
2018-06-25T15:42:02.020Z,25.60
2018-06-25T15:44:31.076Z,25.70
2018-06-25T15:47:00.108Z,25.40
2018-06-25T15:49:29.163Z,24.90
2018-06-25T15:51:58.199Z,24.30
2018-06-25T15:54:27.255Z,24.10
2018-06-25T15:56:56.293Z,24.00
2018-06-25T15:59:25.440Z,24.20
2018-06-25T16:01:54.487Z,24.40
2018-06-25T16:04:23.544Z,24.20
2018-06-25T16:06:52.641Z,24.40
2018-06-25T16:09:21.660Z,24.60
2018-06-25T16:11:50.719Z,24.80
2018-06-25T16:14:19.793Z,24.70
2018-06-25T16:16:48.924Z,25.30
2018-06-25T16:19:17.968Z,25.30
2018-06-25T16:21:47.033Z,25.20
2018-06-25T16:26:44.755Z,24.90
2018-06-25T16:29:13.809Z,25.70
2018-06-25T16:34:11.606Z,27.20
2018-06-25T16:36:40.827Z,27.80
2018-06-25T16:39:11.408Z,28.40
2018-06-25T16:41:40.620Z,29.00
2018-06-25T16:46:39.272Z,30.60
2018-06-25T16:49:08.307Z,29.80
2018-06-25T16:51:37.368Z,29.00
2018-06-25T16:54:06.420Z,29.20
2018-06-25T16:56:35.484Z,28.70
2018-06-25T16:59:04.628Z,28.20
2018-06-25T17:01:34.352Z,28.80
2018-06-25T17:04:03.396Z,28.70
2018-06-25T17:06:32.459Z,28.20
2018-06-25T17:09:01.526Z,28.50
2018-06-25T17:11:30.612Z,29.20
2018-06-25T17:13:59.659Z,29.20
2018-06-25T17:16:28.750Z,29.90
2018-06-25T17:18:57.803Z,30.30
2018-06-25T17:21:26.863Z,30.10
2018-06-25T17:23:55.910Z,30.30
2018-06-25T17:26:25.123Z,29.80
2018-06-25T17:28:54.225Z,29.60
2018-06-25T17:31:23.260Z,30.00
2018-06-25T17:36:21.052Z,28.50
2018-06-25T17:41:18.823Z,28.10
2018-06-25T17:43:47.896Z,26.10
2018-06-25T17:46:16.968Z,26.50
2018-06-25T17:48:46.018Z,26.20
2018-06-25T17:53:43.756Z,27.20
2018-06-25T17:56:12.820Z,26.90
2018-06-25T17:58:41.880Z,26.60
2018-06-25T18:01:10.944Z,26.70
2018-06-25T18:03:39.997Z,26.70
2018-06-25T18:06:09.065Z,26.80
2018-06-25T18:08:38.103Z,26.60
2018-06-25T18:11:07.167Z,26.20
2018-06-25T18:13:36.232Z,26.60
2018-06-25T18:16:05.596Z,26.30
2018-06-25T18:18:34.645Z,24.90
2018-06-25T18:21:03.729Z,23.70
2018-06-25T18:23:32.788Z,22.80
2018-06-25T18:26:01.892Z,21.80
2018-06-25T18:28:30.936Z,21.40
2018-06-25T18:30:59.999Z,21.10
2018-06-25T18:33:29.056Z,20.80
2018-06-25T18:35:58.140Z,20.70
2018-06-25T18:43:24.599Z,20.10
2018-06-25T18:45:53.661Z,20.00
2018-06-25T18:48:22.974Z,19.70
2018-06-25T18:50:52.027Z,19.50
2018-06-25T18:53:21.071Z,19.40
2018-06-25T18:55:50.153Z,19.20
2018-06-25T18:58:19.194Z,19.00
2018-06-25T19:00:48.255Z,18.80
2018-06-25T19:03:17.364Z,18.70
2018-06-25T19:05:46.520Z,18.60
2018-06-25T19:08:15.515Z,18.50
2018-06-25T19:10:44.607Z,18.30
2018-06-25T19:13:13.667Z,18.20
2018-06-25T19:18:11.431Z,18.10
2018-06-25T19:20:40.469Z,18.10
2018-06-25T19:23:09.539Z,18.00
2018-06-25T19:33:04.685Z,17.70
2018-06-25T19:38:02.464Z,17.60
2018-06-25T19:40:31.556Z,17.60
2018-06-25T19:43:00.600Z,17.50
2018-06-25T19:45:29.647Z,17.40
2018-06-25T19:47:58.706Z,17.40
2018-06-25T19:50:27.746Z,17.30
2018-06-25T19:52:56.803Z,17.20
2018-06-25T19:55:25.844Z,17.10
2018-06-25T20:00:23.613Z,17.10
2018-06-25T20:02:52.676Z,17.00
2018-06-25T20:05:21.712Z,17.00
2018-06-25T20:07:50.767Z,16.90
2018-06-25T20:10:19.833Z,16.80
2018-06-25T20:12:48.903Z,16.70
2018-06-25T20:17:46.807Z,16.80
2018-06-25T20:20:15.852Z,16.70
2018-06-25T20:22:44.920Z,16.70
2018-06-25T20:25:13.971Z,16.70
2018-06-25T20:32:40.435Z,16.70
2018-06-25T20:35:09.788Z,16.70
2018-06-25T20:37:38.847Z,16.60
2018-06-25T20:42:36.583Z,16.60
2018-06-25T20:45:05.643Z,16.60
2018-06-25T20:47:35.012Z,16.60
2018-06-25T20:50:04.459Z,16.60
2018-06-25T20:52:33.519Z,16.50
2018-06-25T20:55:02.564Z,16.50
2018-06-25T20:57:31.629Z,16.50
2018-06-25T21:02:29.496Z,16.50
2018-06-25T21:04:58.540Z,16.50
2018-06-25T21:07:27.603Z,16.50
2018-06-25T21:12:25.372Z,16.40
2018-06-25T21:14:54.416Z,16.40
2018-06-25T21:17:23.546Z,16.40
2018-06-25T21:19:52.592Z,16.40
2018-06-25T21:22:21.651Z,16.30
2018-06-25T21:24:50.720Z,16.40
2018-06-25T21:27:19.799Z,16.30
2018-06-25T21:29:48.836Z,16.40
2018-06-25T21:32:17.900Z,16.40
2018-06-25T21:34:46.980Z,16.30
2018-06-25T21:37:16.040Z,16.40
2018-06-25T21:42:14.705Z,16.30
2018-06-25T21:44:43.744Z,16.30
2018-06-25T21:49:42.072Z,16.40
2018-06-25T21:52:11.140Z,16.40
2018-06-25T21:54:40.191Z,16.40
2018-06-25T21:57:09.261Z,16.40
2018-06-25T21:59:38.312Z,16.40
2018-06-25T22:04:36.064Z,16.40
2018-06-25T22:07:05.120Z,16.40
2018-06-25T22:09:34.221Z,16.40
2018-06-25T22:12:03.284Z,16.40
2018-06-25T22:14:32.344Z,16.40
2018-06-25T22:17:01.388Z,16.30
2018-06-25T22:19:30.451Z,16.30
2018-06-25T22:21:59.500Z,16.30
2018-06-25T22:24:28.580Z,16.20
2018-06-25T22:26:57.628Z,16.20
2018-06-25T22:29:26.687Z,16.20
2018-06-25T22:31:55.732Z,16.20
2018-06-25T22:34:24.792Z,16.20
2018-06-25T22:36:53.832Z,16.20
2018-06-25T22:39:22.899Z,16.20
2018-06-25T22:41:51.944Z,16.20
2018-06-25T22:49:18.363Z,16.20
2018-06-25T22:51:47.405Z,16.20
2018-06-25T22:59:13.872Z,16.10
2018-06-25T23:01:42.913Z,16.10
2018-06-25T23:04:11.964Z,16.10
2018-06-25T23:14:07.824Z,16.00
2018-06-25T23:16:36.907Z,16.00
2018-06-25T23:19:05.967Z,16.00
2018-06-25T23:21:35.008Z,16.00
2018-06-25T23:24:04.076Z,15.90
2018-06-25T23:26:33.120Z,15.90
2018-06-25T23:33:59.569Z,15.70
2018-06-25T23:36:28.616Z,15.70
2018-06-25T23:38:57.676Z,15.70
2018-06-25T23:43:55.404Z,15.70
2018-06-25T23:46:24.453Z,15.70
2018-06-25T23:48:53.519Z,15.60
2018-06-25T23:51:22.619Z,15.60
2018-06-25T23:53:51.681Z,15.70
2018-06-25T23:56:20.720Z,15.70
2018-06-25T23:58:49.784Z,15.60
